createdAt,value
2022-09-24T00:01:31.397Z,12.70
2022-09-24T00:04:02.479Z,14.13
2022-09-24T00:06:30.412Z,12.27
2022-09-24T00:08:57.819Z,12.47
2022-09-24T00:11:26.554Z,12.43
2022-09-24T00:13:53.617Z,13.37
2022-09-24T00:16:22.005Z,12.70
2022-09-24T00:18:49.031Z,11.77
2022-09-24T00:21:15.935Z,11.57
2022-09-24T00:23:43.065Z,11.90
2022-09-24T00:26:29.919Z,13.47
2022-09-24T00:28:57.034Z,13.23
2022-09-24T00:31:24.517Z,11.47
2022-09-24T00:33:52.477Z,11.93
2022-09-24T00:36:20.235Z,11.97
2022-09-24T00:38:54.887Z,11.43
2022-09-24T00:41:23.658Z,11.50
2022-09-24T00:43:50.607Z,12.70
2022-09-24T00:46:35.698Z,11.60
2022-09-24T00:49:22.792Z,12.00
2022-09-24T00:51:51.566Z,12.67
2022-09-24T00:54:23.278Z,11.80
2022-09-24T00:56:51.272Z,13.20
2022-09-24T00:59:19.607Z,13.00
2022-09-24T01:01:47.209Z,13.13
2022-09-24T01:04:14.484Z,12.37
2022-09-24T01:06:41.489Z,8.97
2022-09-24T01:09:08.692Z,12.00
2022-09-24T01:12:01.993Z,12.43
2022-09-24T01:14:44.279Z,10.97
2022-09-24T01:17:13.906Z,13.33
2022-09-24T01:19:40.727Z,12.17
2022-09-24T01:22:16.079Z,12.23
2022-09-24T01:25:01.925Z,13.63
2022-09-24T01:27:28.997Z,14.30
2022-09-24T01:30:06.787Z,13.07
2022-09-24T01:32:34.657Z,13.20
2022-09-24T01:35:03.512Z,14.17
2022-09-24T01:37:34.161Z,12.43
2022-09-24T01:40:01.863Z,14.20
2022-09-24T01:42:30.501Z,14.77
2022-09-24T01:44:58.397Z,13.47
2022-09-24T01:47:35.122Z,13.03
2022-09-24T01:50:03.864Z,14.57
2022-09-24T01:52:34.535Z,13.47
2022-09-24T01:55:02.246Z,13.57
2022-09-24T01:57:39.282Z,14.57
2022-09-24T02:00:09.940Z,13.67
2022-09-24T02:02:52.227Z,13.53
2022-09-24T02:05:19.204Z,12.50
2022-09-24T02:07:50.919Z,13.57
2022-09-24T02:10:19.174Z,15.47
2022-09-24T02:12:47.474Z,15.30
2022-09-24T02:15:22.431Z,14.70
2022-09-24T02:17:53.615Z,14.53
2022-09-24T02:20:21.858Z,14.30
2022-09-24T02:22:49.842Z,14.73
2022-09-24T02:25:21.011Z,16.70
2022-09-24T02:27:47.963Z,14.90
2022-09-24T02:30:14.936Z,15.03
2022-09-24T02:32:42.281Z,15.77
2022-09-24T02:35:10.285Z,14.47
2022-09-24T02:37:38.450Z,14.57
2022-09-24T02:40:06.661Z,16.00
2022-09-24T02:42:33.599Z,13.80
2022-09-24T02:45:00.790Z,13.83
2022-09-24T02:47:27.751Z,14.70
2022-09-24T02:49:54.676Z,14.77
2022-09-24T02:52:22.621Z,16.67
2022-09-24T02:54:52.430Z,16.80
2022-09-24T02:57:19.631Z,17.20
2022-09-24T02:59:46.716Z,18.40
2022-09-24T03:02:13.820Z,17.13
2022-09-24T03:04:40.804Z,17.30
2022-09-24T03:07:07.641Z,18.77
2022-09-24T03:09:34.395Z,18.83
2022-09-24T03:12:01.631Z,18.63
2022-09-24T03:14:28.451Z,17.07
2022-09-24T03:16:55.238Z,17.60
2022-09-24T03:19:22.122Z,19.33
2022-09-24T03:21:48.881Z,21.13
2022-09-24T03:24:15.794Z,20.07
2022-09-24T03:26:42.981Z,19.70
2022-09-24T03:29:10.393Z,18.93
2022-09-24T03:31:37.324Z,19.83
2022-09-24T03:34:04.114Z,19.53
2022-09-24T03:36:31.054Z,19.33
2022-09-24T03:38:58.131Z,17.87
2022-09-24T03:41:26.387Z,19.67
2022-09-24T03:43:53.309Z,19.43
2022-09-24T03:46:20.163Z,19.13
2022-09-24T03:48:47.698Z,19.10
2022-09-24T03:51:15.953Z,19.00
2022-09-24T03:53:42.856Z,19.53
2022-09-24T03:56:09.918Z,19.30
2022-09-24T03:58:39.676Z,20.17
2022-09-24T04:01:07.209Z,20.17
2022-09-24T04:03:33.992Z,18.87
2022-09-24T04:06:00.849Z,19.37
2022-09-24T04:08:27.981Z,19.93
2022-09-24T04:10:55.824Z,19.60
2022-09-24T04:13:22.655Z,18.80
2022-09-24T04:15:50.505Z,20.60
2022-09-24T04:18:17.954Z,20.20
2022-09-24T04:20:45.518Z,21.67
2022-09-24T04:23:12.385Z,21.73
2022-09-24T04:25:40.780Z,22.43
2022-09-24T04:28:08.316Z,21.27
2022-09-24T04:30:35.948Z,21.80
2022-09-24T04:33:03.299Z,21.30
2022-09-24T04:35:30.996Z,21.83
2022-09-24T04:37:57.937Z,21.37
2022-09-24T04:40:25.115Z,21.50
2022-09-24T04:42:52.786Z,24.93
2022-09-24T04:45:20.388Z,25.23
2022-09-24T04:47:56.321Z,26.17
2022-09-24T04:50:23.962Z,25.23
2022-09-24T04:52:53.088Z,26.17
2022-09-24T04:55:20.982Z,31.63
2022-09-24T04:57:48.222Z,39.77
2022-09-24T05:00:17.731Z,54.33
2022-09-24T05:02:44.927Z,57.47
2022-09-24T05:05:12.483Z,46.00
2022-09-24T05:07:39.600Z,38.20
2022-09-24T05:10:06.947Z,31.20
2022-09-24T05:12:35.541Z,28.37
2022-09-24T05:15:02.494Z,25.87
2022-09-24T05:17:29.363Z,24.23
2022-09-24T05:19:58.038Z,24.07
2022-09-24T05:22:25.760Z,25.80
2022-09-24T05:24:52.657Z,25.93
2022-09-24T05:27:21.888Z,23.80
2022-09-24T05:29:49.124Z,28.30
2022-09-24T05:32:20.136Z,24.50
2022-09-24T05:34:47.443Z,24.07
2022-09-24T05:37:14.797Z,26.13
2022-09-24T05:39:41.858Z,24.97
2022-09-24T05:42:14.092Z,24.33
2022-09-24T05:44:41.254Z,23.13
2022-09-24T05:47:08.563Z,23.87
2022-09-24T05:49:35.753Z,22.70
2022-09-24T05:52:03.033Z,23.93
2022-09-24T05:54:30.291Z,25.37
2022-09-24T05:56:57.060Z,23.63
2022-09-24T05:59:25.192Z,22.10
2022-09-24T06:01:52.396Z,23.23
2022-09-24T06:04:19.394Z,23.27
2022-09-24T06:06:46.183Z,22.97
2022-09-24T06:09:13.159Z,23.80
2022-09-24T06:11:41.121Z,22.90
2022-09-24T06:14:08.906Z,22.23
2022-09-24T06:16:36.376Z,22.33
2022-09-24T06:19:03.771Z,23.27
2022-09-24T06:21:30.523Z,21.93
2022-09-24T06:23:57.308Z,23.50
2022-09-24T06:26:26.498Z,22.23
2022-09-24T06:28:53.285Z,22.43
2022-09-24T06:31:20.598Z,23.40
2022-09-24T06:33:47.822Z,21.90
2022-09-24T06:36:14.873Z,20.97
2022-09-24T06:38:42.051Z,21.33
2022-09-24T06:41:10.333Z,20.93
2022-09-24T06:43:37.202Z,20.30
2022-09-24T06:46:04.151Z,18.13
2022-09-24T06:48:31.975Z,17.47
2022-09-24T06:50:58.785Z,18.00
2022-09-24T06:53:25.729Z,17.73
2022-09-24T06:55:53.607Z,17.63
2022-09-24T06:58:21.125Z,15.97
2022-09-24T07:00:52.273Z,16.67
2022-09-24T07:03:19.368Z,16.07
2022-09-24T07:05:46.178Z,16.03
2022-09-24T07:08:13.041Z,16.13
2022-09-24T07:10:46.747Z,13.93
2022-09-24T07:13:14.204Z,16.03
2022-09-24T07:15:41.844Z,13.60
2022-09-24T07:18:08.977Z,13.27
2022-09-24T07:20:37.118Z,13.83
2022-09-24T07:23:04.774Z,13.50
2022-09-24T07:25:31.667Z,13.07
2022-09-24T07:28:09.372Z,14.83
2022-09-24T07:30:36.567Z,12.73
2022-09-24T07:33:03.423Z,13.07
2022-09-24T07:35:30.299Z,13.23
2022-09-24T07:38:07.227Z,12.97
2022-09-24T07:40:34.161Z,12.77
2022-09-24T07:43:01.052Z,14.63
2022-09-24T07:45:29.816Z,14.27
2022-09-24T07:48:01.495Z,13.47
2022-09-24T07:50:29.651Z,13.10
2022-09-24T07:52:57.061Z,13.90
2022-09-24T07:55:24.278Z,13.67
2022-09-24T07:57:52.099Z,13.90
2022-09-24T08:00:20.055Z,13.27
2022-09-24T08:02:47.861Z,12.00
2022-09-24T08:05:16.755Z,13.23
2022-09-24T08:07:43.894Z,12.10
2022-09-24T08:10:11.725Z,12.40
2022-09-24T08:12:38.633Z,12.93
2022-09-24T08:15:05.768Z,12.00
2022-09-24T08:17:33.016Z,11.80
2022-09-24T08:20:00.014Z,11.87
2022-09-24T08:22:26.855Z,11.53
2022-09-24T08:24:54.474Z,9.83
2022-09-24T08:27:21.256Z,11.10
2022-09-24T08:29:48.756Z,11.20
2022-09-24T08:32:15.810Z,10.20
2022-09-24T08:34:42.762Z,10.40
2022-09-24T08:37:09.857Z,10.13
2022-09-24T08:39:36.951Z,9.00
2022-09-24T08:42:10.798Z,9.77
2022-09-24T08:45:03.694Z,8.37
2022-09-24T08:47:45.913Z,9.00
2022-09-24T08:50:15.832Z,8.23
2022-09-24T08:52:42.676Z,8.90
2022-09-24T08:55:15.545Z,8.23
2022-09-24T08:57:51.149Z,7.90
2022-09-24T09:00:18.447Z,8.03
2022-09-24T09:03:04.182Z,6.77
2022-09-24T09:05:34.159Z,7.33
2022-09-24T09:08:02.947Z,7.53
2022-09-24T09:10:43.619Z,7.07
2022-09-24T09:13:14.184Z,7.23
2022-09-24T09:15:44.257Z,7.60
2022-09-24T09:18:15.367Z,7.23
2022-09-24T09:20:43.691Z,7.90
2022-09-24T09:23:16.356Z,7.33
2022-09-24T09:25:47.831Z,6.10
2022-09-24T09:28:15.796Z,6.60
2022-09-24T09:31:00.644Z,6.97
2022-09-24T09:33:30.729Z,7.20
2022-09-24T09:35:57.572Z,6.20
2022-09-24T09:38:44.632Z,6.13
2022-09-24T09:41:11.411Z,5.50
2022-09-24T09:43:38.734Z,6.63
2022-09-24T09:46:14.691Z,5.93
2022-09-24T09:48:50.409Z,4.93
2022-09-24T09:51:22.913Z,6.27
2022-09-24T09:53:56.297Z,5.03
2022-09-24T09:56:24.952Z,5.50
2022-09-24T09:58:55.947Z,5.73
2022-09-24T10:01:31.940Z,6.30
2022-09-24T10:04:03.296Z,6.07
2022-09-24T10:06:35.268Z,6.03
2022-09-24T10:09:16.307Z,5.70
2022-09-24T10:11:43.148Z,5.90
2022-09-24T10:14:11.561Z,5.33
2022-09-24T10:16:39.686Z,5.77
2022-09-24T10:19:23.778Z,6.80
2022-09-24T10:21:51.083Z,6.23
2022-09-24T10:24:20.555Z,5.87
2022-09-24T10:26:48.011Z,6.57
2022-09-24T10:29:35.938Z,6.50
2022-09-24T10:32:03.828Z,6.00
2022-09-24T10:34:32.174Z,6.57
2022-09-24T10:37:01.301Z,5.40
2022-09-24T10:39:28.532Z,5.33
2022-09-24T10:41:59.036Z,5.50
2022-09-24T10:44:30.206Z,4.43
2022-09-24T10:47:18.931Z,5.10
2022-09-24T10:50:04.448Z,5.17
2022-09-24T10:52:50.049Z,4.87
2022-09-24T10:55:32.461Z,5.43
2022-09-24T10:58:04.342Z,4.87
2022-09-24T11:00:44.441Z,5.07
2022-09-24T11:03:29.855Z,4.77
2022-09-24T11:06:23.122Z,4.53
2022-09-24T11:08:49.905Z,4.70
2022-09-24T11:11:35.472Z,5.10
2022-09-24T11:14:16.582Z,4.10
2022-09-24T11:16:49.167Z,4.80
2022-09-24T11:19:22.229Z,4.60
2022-09-24T11:22:04.527Z,4.23
2022-09-24T11:24:49.472Z,4.67
2022-09-24T11:27:28.927Z,4.23
2022-09-24T11:29:58.740Z,4.27
2022-09-24T11:32:25.604Z,3.97
2022-09-24T11:34:55.201Z,4.90
2022-09-24T11:37:38.155Z,4.90
2022-09-24T11:40:12.250Z,4.40
2022-09-24T11:42:58.110Z,5.60
2022-09-24T11:45:25.265Z,5.40
2022-09-24T11:48:15.389Z,5.47
2022-09-24T11:50:46.694Z,4.77
2022-09-24T11:53:20.010Z,4.90
2022-09-24T11:55:51.862Z,4.80
2022-09-24T11:58:18.732Z,5.47
2022-09-24T12:00:50.292Z,4.77
2022-09-24T12:03:25.707Z,5.27
2022-09-24T12:06:14.635Z,4.03
2022-09-24T12:08:48.824Z,3.23
2022-09-24T12:11:24.862Z,3.03
2022-09-24T12:14:09.813Z,3.03
2022-09-24T12:16:38.333Z,3.20
2022-09-24T12:19:12.608Z,3.63
2022-09-24T12:21:41.833Z,3.40
2022-09-24T12:24:27.544Z,3.57
2022-09-24T12:26:57.843Z,4.23
2022-09-24T12:29:46.456Z,4.10
2022-09-24T12:32:31.684Z,3.77
2022-09-24T12:34:58.921Z,3.77
2022-09-24T12:37:29.153Z,4.63
2022-09-24T12:40:14.805Z,4.10
2022-09-24T12:42:45.689Z,2.80
2022-09-24T12:45:22.530Z,4.27
2022-09-24T12:47:55.000Z,3.70
2022-09-24T12:50:24.094Z,3.70
2022-09-24T12:52:50.872Z,3.07
2022-09-24T12:55:31.321Z,4.20
2022-09-24T12:58:06.586Z,4.03
2022-09-24T13:00:39.862Z,3.80
2022-09-24T13:03:07.922Z,4.33
2022-09-24T13:05:40.968Z,4.93
2022-09-24T13:08:07.971Z,5.30
2022-09-24T13:10:36.695Z,3.93
2022-09-24T13:13:15.950Z,4.60
2022-09-24T13:15:43.077Z,5.20
2022-09-24T13:18:10.310Z,4.50
2022-09-24T13:20:38.551Z,6.00
2022-09-24T13:23:12.997Z,7.13
2022-09-24T13:25:39.914Z,4.70
2022-09-24T13:28:20.743Z,8.90
2022-09-24T13:30:51.076Z,5.33
2022-09-24T13:33:32.188Z,5.87
2022-09-24T13:36:13.749Z,5.07
2022-09-24T13:38:53.005Z,5.23
2022-09-24T13:41:23.523Z,7.33
2022-09-24T13:43:52.989Z,5.40
2022-09-24T13:46:21.056Z,4.90
2022-09-24T13:48:52.913Z,5.33
2022-09-24T13:51:22.984Z,4.23
2022-09-24T13:53:52.940Z,5.83
2022-09-24T13:56:20.291Z,5.27
2022-09-24T13:58:48.122Z,5.50
2022-09-24T14:01:19.689Z,5.60
2022-09-24T14:04:00.668Z,6.03
2022-09-24T14:06:38.104Z,5.50
2022-09-24T14:09:23.587Z,6.07
2022-09-24T14:11:51.134Z,6.00
2022-09-24T14:14:20.065Z,5.40
2022-09-24T14:16:47.271Z,5.80
2022-09-24T14:19:14.934Z,5.30
2022-09-24T14:21:45.395Z,5.20
2022-09-24T14:24:22.366Z,4.90
2022-09-24T14:26:49.191Z,5.53
2022-09-24T14:29:24.122Z,5.33
2022-09-24T14:31:53.284Z,5.60
2022-09-24T14:34:24.889Z,4.97
2022-09-24T14:36:52.493Z,5.10
2022-09-24T14:39:19.403Z,5.30
2022-09-24T14:41:46.571Z,6.00
2022-09-24T14:44:20.260Z,4.60
2022-09-24T14:46:56.114Z,5.47
2022-09-24T14:49:22.979Z,4.37
2022-09-24T14:52:00.142Z,4.83
2022-09-24T14:54:34.257Z,4.40
2022-09-24T14:57:11.078Z,4.03
2022-09-24T14:59:41.786Z,5.30
2022-09-24T15:02:38.150Z,4.20
2022-09-24T15:05:07.165Z,4.40
2022-09-24T15:07:35.129Z,4.67
2022-09-24T15:10:03.747Z,5.00
2022-09-24T15:12:32.450Z,4.33
2022-09-24T15:15:00.149Z,4.40
2022-09-24T15:17:32.611Z,4.10
2022-09-24T15:19:59.940Z,4.13
2022-09-24T15:22:28.144Z,4.00
2022-09-24T15:25:01.040Z,4.60
2022-09-24T15:27:29.926Z,4.17
2022-09-24T15:30:00.138Z,4.67
2022-09-24T15:32:28.148Z,4.30
2022-09-24T15:34:58.296Z,4.23
2022-09-24T15:37:26.639Z,4.20
2022-09-24T15:39:56.263Z,4.03
2022-09-24T15:42:24.339Z,4.53
2022-09-24T15:44:51.319Z,3.90
2022-09-24T15:47:18.683Z,4.67
2022-09-24T15:49:45.513Z,4.23
2022-09-24T15:52:12.306Z,4.47
2022-09-24T15:54:39.136Z,4.80
2022-09-24T15:57:05.988Z,4.47
2022-09-24T15:59:32.967Z,4.23
2022-09-24T16:02:03.861Z,4.27
2022-09-24T16:04:30.783Z,3.93
2022-09-24T16:06:57.597Z,4.27
2022-09-24T16:09:24.429Z,3.80
2022-09-24T16:11:51.284Z,3.73
2022-09-24T16:14:18.130Z,4.83
2022-09-24T16:16:44.975Z,4.20
2022-09-24T16:19:12.699Z,4.10
2022-09-24T16:21:39.666Z,4.07
2022-09-24T16:24:06.605Z,4.53
2022-09-24T16:26:34.580Z,4.20
2022-09-24T16:29:05.868Z,4.40
2022-09-24T16:31:34.312Z,4.77
2022-09-24T16:34:01.150Z,9.30
2022-09-24T16:36:28.135Z,8.30
2022-09-24T16:38:54.944Z,7.40
2022-09-24T16:41:21.763Z,8.97
2022-09-24T16:43:48.991Z,7.70
2022-09-24T16:46:20.447Z,9.43
2022-09-24T16:48:49.330Z,10.10
2022-09-24T16:51:17.478Z,11.07
2022-09-24T16:53:48.515Z,11.07
2022-09-24T16:56:16.677Z,12.07
2022-09-24T16:58:44.428Z,11.17
2022-09-24T17:01:12.397Z,11.30
2022-09-24T17:03:39.612Z,12.73
2022-09-24T17:06:07.085Z,12.93
2022-09-24T17:08:53.549Z,11.77
2022-09-24T17:11:21.184Z,12.87
2022-09-24T17:13:48.006Z,10.97
2022-09-24T17:16:15.572Z,10.63
2022-09-24T17:18:42.586Z,13.73
2022-09-24T17:21:11.711Z,14.80
2022-09-24T17:23:39.087Z,12.67
2022-09-24T17:26:11.772Z,16.97
2022-09-24T17:28:40.599Z,16.27
2022-09-24T17:31:08.079Z,17.57
2022-09-24T17:33:44.105Z,17.13
2022-09-24T17:36:12.735Z,15.07
2022-09-24T17:38:39.816Z,14.37
2022-09-24T17:41:07.862Z,21.57
2022-09-24T17:43:35.434Z,16.00
2022-09-24T17:46:28.580Z,14.97
2022-09-24T17:48:56.534Z,18.80
2022-09-24T17:51:25.004Z,16.23
2022-09-24T17:53:53.261Z,22.27
2022-09-24T17:56:21.332Z,18.87
2022-09-24T17:58:48.232Z,15.77
2022-09-24T18:01:15.033Z,15.40
2022-09-24T18:03:41.924Z,15.03
2022-09-24T18:06:10.323Z,15.83
2022-09-24T18:08:37.903Z,15.60
2022-09-24T18:11:09.570Z,20.00
2022-09-24T18:13:36.807Z,18.30
2022-09-24T18:16:07.605Z,20.23
2022-09-24T18:18:34.700Z,21.67
2022-09-24T18:21:05.685Z,21.43
2022-09-24T18:23:34.835Z,27.03
2022-09-24T18:26:10.638Z,23.60
2022-09-24T18:28:38.761Z,19.40
2022-09-24T18:31:06.120Z,15.63
2022-09-24T18:33:33.552Z,17.17
2022-09-24T18:36:04.321Z,20.73
2022-09-24T18:38:33.836Z,18.47
2022-09-24T18:41:01.868Z,17.70
2022-09-24T18:43:28.753Z,15.53
2022-09-24T18:45:55.573Z,18.20
2022-09-24T18:48:22.498Z,18.33
2022-09-24T18:50:49.291Z,20.27
2022-09-24T18:53:16.525Z,22.37
2022-09-24T18:55:43.593Z,21.37
2022-09-24T18:58:13.538Z,27.50
2022-09-24T19:00:54.292Z,23.70
2022-09-24T19:03:22.238Z,27.83
2022-09-24T19:05:51.577Z,29.33
2022-09-24T19:08:22.317Z,22.57
2022-09-24T19:10:50.047Z,25.63
2022-09-24T19:13:17.069Z,23.83
2022-09-24T19:15:44.032Z,23.37
2022-09-24T19:18:12.613Z,24.47
2022-09-24T19:20:40.165Z,24.70
2022-09-24T19:23:08.309Z,23.27
2022-09-24T19:25:35.977Z,22.33
2022-09-24T19:28:04.486Z,23.47
2022-09-24T19:30:36.994Z,25.77
2022-09-24T19:33:03.907Z,24.30
2022-09-24T19:35:31.060Z,27.17
2022-09-24T19:37:57.972Z,30.10
2022-09-24T19:40:24.864Z,29.60
2022-09-24T19:42:52.032Z,30.50
2022-09-24T19:45:18.817Z,27.27
2022-09-24T19:47:45.743Z,22.97
2022-09-24T19:50:17.324Z,23.20
2022-09-24T19:52:44.852Z,21.30
2022-09-24T19:55:12.114Z,20.90
2022-09-24T19:57:39.204Z,21.30
2022-09-24T20:00:06.678Z,23.07
2022-09-24T20:02:34.163Z,25.37
2022-09-24T20:05:00.998Z,25.30
2022-09-24T20:07:27.759Z,26.40
2022-09-24T20:09:54.592Z,22.03
2022-09-24T20:12:21.992Z,21.10
2022-09-24T20:14:48.754Z,19.57
2022-09-24T20:17:16.126Z,21.20
2022-09-24T20:19:43.048Z,23.67
2022-09-24T20:22:12.821Z,27.33
2022-09-24T20:24:43.488Z,24.13
2022-09-24T20:27:30.422Z,20.30
2022-09-24T20:29:57.777Z,19.07
2022-09-24T20:32:25.151Z,20.03
2022-09-24T20:34:52.487Z,19.83
2022-09-24T20:37:19.443Z,20.47
2022-09-24T20:39:46.270Z,21.50
2022-09-24T20:42:13.894Z,21.30
2022-09-24T20:44:40.862Z,18.33
2022-09-24T20:47:07.662Z,18.17
2022-09-24T20:49:34.945Z,19.40
2022-09-24T20:52:03.405Z,18.73
2022-09-24T20:54:30.326Z,22.43
2022-09-24T20:56:57.459Z,29.03
2022-09-24T20:59:26.028Z,24.53
2022-09-24T21:01:53.313Z,19.77
2022-09-24T21:04:20.423Z,19.00
2022-09-24T21:06:47.489Z,22.43
2022-09-24T21:09:14.695Z,18.67
2022-09-24T21:11:42.259Z,17.30
2022-09-24T21:14:10.848Z,16.67
2022-09-24T21:16:37.937Z,17.47
2022-09-24T21:19:05.844Z,19.63
2022-09-24T21:21:34.846Z,19.10
2022-09-24T21:24:02.351Z,16.67
2022-09-24T21:26:34.272Z,16.70
2022-09-24T21:29:03.175Z,18.57
2022-09-24T21:31:31.825Z,16.80
2022-09-24T21:33:58.725Z,18.53
2022-09-24T21:36:26.768Z,18.03
2022-09-24T21:38:56.438Z,17.67
2022-09-24T21:41:24.291Z,16.93
2022-09-24T21:43:51.044Z,18.20
2022-09-24T21:46:18.400Z,18.47
2022-09-24T21:48:45.275Z,17.37
2022-09-24T21:51:22.429Z,18.10
2022-09-24T21:53:49.371Z,18.30
2022-09-24T21:56:18.962Z,18.70
2022-09-24T21:58:46.586Z,18.50
2022-09-24T22:01:17.986Z,18.60
2022-09-24T22:03:48.031Z,17.97
2022-09-24T22:06:15.416Z,19.63
2022-09-24T22:08:43.281Z,18.40
2022-09-24T22:11:11.400Z,17.27
2022-09-24T22:13:38.921Z,18.30
2022-09-24T22:16:07.803Z,16.70
2022-09-24T22:18:34.841Z,17.40
2022-09-24T22:21:06.479Z,17.53
2022-09-24T22:23:33.463Z,18.17
2022-09-24T22:26:00.482Z,17.90
2022-09-24T22:28:27.681Z,18.00
2022-09-24T22:30:57.153Z,18.30
2022-09-24T22:33:43.490Z,14.53
2022-09-24T22:36:10.401Z,14.87
2022-09-24T22:38:37.254Z,18.97
2022-09-24T22:41:05.028Z,16.37
2022-09-24T22:43:32.429Z,16.27
2022-09-24T22:46:00.025Z,16.07
2022-09-24T22:48:27.205Z,17.17
2022-09-24T22:50:54.110Z,17.33
2022-09-24T22:53:21.360Z,19.10
2022-09-24T22:55:52.509Z,24.80
2022-09-24T22:58:19.905Z,24.57
2022-09-24T23:00:46.708Z,22.47
2022-09-24T23:03:13.494Z,19.20
2022-09-24T23:05:40.390Z,15.20
2022-09-24T23:08:07.175Z,16.77
2022-09-24T23:10:34.116Z,18.87
2022-09-24T23:13:00.868Z,18.47
2022-09-24T23:15:27.895Z,19.57
2022-09-24T23:17:55.210Z,22.27
2022-09-24T23:20:22.853Z,22.53
2022-09-24T23:22:49.903Z,25.83
2022-09-24T23:25:17.680Z,24.60
2022-09-24T23:27:44.506Z,25.97
2022-09-24T23:30:11.450Z,28.80
2022-09-24T23:32:38.373Z,22.67
2022-09-24T23:35:05.435Z,24.10
2022-09-24T23:37:32.176Z,22.27
2022-09-24T23:39:59.950Z,18.33
2022-09-24T23:42:27.313Z,17.43
2022-09-24T23:44:54.199Z,18.27
2022-09-24T23:47:20.999Z,17.90
2022-09-24T23:49:47.850Z,17.00
2022-09-24T23:52:14.584Z,19.83
2022-09-24T23:54:41.800Z,18.50
2022-09-24T23:57:09.452Z,19.90
2022-09-24T23:59:36.282Z,18.83
